Fort Riley, Kansas
Current Conditions -  °F | °C
As of 9:58 PM on Tuesday 21 Oct 2014 (Local Time) from KFRI Reporting Station
Clear Clear  
Wind Chill: 65°   Ceiling: Unl
Heat Index: 65°   Visibility: 10mi
Dew Point: 54°   Wind: 9mph
Humidity: 66%   Direction: 130°SE
Pressure: 30.04"   Gusts: NA
Location:  39.07°N, 96.8°W
Report Text: KFRI 220258Z AUTO 13008KT 10SM CLR 18/12 A3004 RMK AO2 SLP169 60000 T01840120 52010
Loading
Personal Weather Stations






























Interactive Weather Map
Tropical Storm Tracking
New forecast layout! Learn more

10-Day Weather Forecast

Advertisements
Track Severe Weather on mobile